createdAt,value
2023-05-12T00:00:05.628Z,8.40
2023-05-12T00:00:26.678Z,8.40
2023-05-12T00:00:47.750Z,8.90
2023-05-12T00:01:08.792Z,8.40
2023-05-12T00:01:29.851Z,8.70
2023-05-12T00:01:50.927Z,8.80
2023-05-12T00:02:11.984Z,8.80
2023-05-12T00:02:33.105Z,8.40
2023-05-12T00:02:54.211Z,8.60
2023-05-12T00:03:15.352Z,9.00
2023-05-12T00:03:36.619Z,9.00
2023-05-12T00:03:58.328Z,8.80
2023-05-12T00:04:19.714Z,9.10
2023-05-12T00:04:40.824Z,9.10
2023-05-12T00:05:01.935Z,9.10
2023-05-12T00:05:22.992Z,8.90
2023-05-12T00:05:44.050Z,8.70
2023-05-12T00:06:05.099Z,8.80
2023-05-12T00:06:26.161Z,8.80
2023-05-12T00:06:47.223Z,8.70
2023-05-12T00:07:08.277Z,8.70
2023-05-12T00:07:29.333Z,9.00
2023-05-12T00:07:50.403Z,9.50
2023-05-12T00:08:11.477Z,9.30
2023-05-12T00:08:32.532Z,9.10
2023-05-12T00:08:53.586Z,9.20
2023-05-12T00:09:14.674Z,8.60
2023-05-12T00:09:35.949Z,8.40
2023-05-12T00:09:57.005Z,8.30
2023-05-12T00:10:18.249Z,8.40
2023-05-12T00:10:39.397Z,9.10
2023-05-12T00:11:00.441Z,8.00
2023-05-12T00:11:21.544Z,8.90
2023-05-12T00:11:42.608Z,9.10
2023-05-12T00:12:03.665Z,9.00
2023-05-12T00:12:24.720Z,8.90
2023-05-12T00:12:45.775Z,9.00
2023-05-12T00:13:06.825Z,9.30
2023-05-12T00:13:27.883Z,9.30
2023-05-12T00:13:49.002Z,8.50
2023-05-12T00:14:10.055Z,8.40
2023-05-12T00:14:31.140Z,8.50
2023-05-12T00:14:52.406Z,8.70
2023-05-12T00:15:13.510Z,8.60
2023-05-12T00:15:34.553Z,9.00
2023-05-12T00:15:55.641Z,9.40
2023-05-12T00:16:16.728Z,9.40
2023-05-12T00:16:37.834Z,9.20
2023-05-12T00:16:58.872Z,8.90
2023-05-12T00:17:19.972Z,8.90
2023-05-12T00:17:41.150Z,9.10
2023-05-12T00:18:02.237Z,8.90
2023-05-12T00:18:23.369Z,9.20
2023-05-12T00:18:44.488Z,9.30
2023-05-12T00:19:05.589Z,9.40
2023-05-12T00:19:26.725Z,9.70
2023-05-12T00:19:47.883Z,9.70
2023-05-12T00:20:08.926Z,9.10
2023-05-12T00:20:29.988Z,9.10
2023-05-12T00:20:51.044Z,8.90
2023-05-12T00:21:12.102Z,9.20
2023-05-12T00:21:33.291Z,9.10
2023-05-12T00:21:54.340Z,8.80
2023-05-12T00:22:15.444Z,9.00
2023-05-12T00:22:36.489Z,8.90
2023-05-12T00:22:57.597Z,9.40
2023-05-12T00:23:18.648Z,9.40
2023-05-12T00:23:39.730Z,9.10
2023-05-12T00:24:00.750Z,9.10
2023-05-12T00:24:21.836Z,8.70
2023-05-12T00:24:42.885Z,8.60
2023-05-12T00:25:03.982Z,8.40
2023-05-12T00:25:25.061Z,8.60
2023-05-12T00:25:46.128Z,9.10
2023-05-12T00:26:07.189Z,9.30
2023-05-12T00:26:28.242Z,8.80
2023-05-12T00:26:49.313Z,9.10
2023-05-12T00:27:10.407Z,9.80
2023-05-12T00:27:31.428Z,9.30
2023-05-12T00:27:52.520Z,9.30
2023-05-12T00:28:13.582Z,9.70
2023-05-12T00:28:34.635Z,9.80
2023-05-12T00:28:55.682Z,9.30
2023-05-12T00:29:16.751Z,9.40
2023-05-12T00:29:37.816Z,9.20
2023-05-12T00:29:58.867Z,9.30
2023-05-12T00:30:20.466Z,9.30
2023-05-12T00:30:42.057Z,9.00
2023-05-12T00:31:03.134Z,9.30
2023-05-12T00:31:24.257Z,9.60
2023-05-12T00:31:45.372Z,9.40
2023-05-12T00:32:06.403Z,9.40
2023-05-12T00:32:27.496Z,9.30
2023-05-12T00:32:48.608Z,9.40
2023-05-12T00:33:09.677Z,9.30
2023-05-12T00:33:30.737Z,9.60
2023-05-12T00:33:51.791Z,9.60
2023-05-12T00:34:12.873Z,9.60
2023-05-12T00:34:33.943Z,10.10
2023-05-12T00:34:54.988Z,9.70
2023-05-12T00:35:16.092Z,9.30
2023-05-12T00:35:38.282Z,9.60
2023-05-12T00:35:59.565Z,9.70
2023-05-12T00:36:20.642Z,9.80
2023-05-12T00:36:41.679Z,9.60
2023-05-12T00:37:02.757Z,9.70
2023-05-12T00:37:23.797Z,8.90
2023-05-12T00:37:44.876Z,9.10
2023-05-12T00:38:05.927Z,9.20
2023-05-12T00:38:27.046Z,9.00
2023-05-12T00:38:48.068Z,9.30
2023-05-12T00:39:09.123Z,9.40
2023-05-12T00:39:30.188Z,9.60
2023-05-12T00:39:51.257Z,9.70
2023-05-12T00:40:12.317Z,9.80
2023-05-12T00:40:35.259Z,10.50
2023-05-12T00:40:56.567Z,10.00
2023-05-12T00:41:17.794Z,9.80
2023-05-12T00:41:38.863Z,9.00
2023-05-12T00:41:59.923Z,9.20
2023-05-12T00:42:20.970Z,9.30
2023-05-12T00:42:42.043Z,9.30
2023-05-12T00:43:03.119Z,9.50
2023-05-12T00:43:24.189Z,9.40
2023-05-12T00:43:45.229Z,9.00
2023-05-12T00:44:06.302Z,8.40
2023-05-12T00:44:27.352Z,8.60
2023-05-12T00:44:48.418Z,8.80
2023-05-12T00:45:09.479Z,8.80
2023-05-12T00:45:30.564Z,8.90
2023-05-12T00:45:51.656Z,8.10
2023-05-12T00:46:12.954Z,8.90
2023-05-12T00:46:34.271Z,9.70
2023-05-12T00:46:55.344Z,9.00
2023-05-12T00:47:16.390Z,8.40
2023-05-12T00:47:37.558Z,8.20
2023-05-12T00:47:58.699Z,8.30
2023-05-12T00:48:19.754Z,7.90
2023-05-12T00:48:40.854Z,7.10
2023-05-12T00:49:01.877Z,7.00
2023-05-12T00:49:22.983Z,6.10
2023-05-12T00:49:44.039Z,6.40
2023-05-12T00:50:05.080Z,6.70
2023-05-12T00:50:26.200Z,5.50
2023-05-12T00:50:47.240Z,5.40
2023-05-12T00:51:08.298Z,5.30
2023-05-12T00:51:29.611Z,5.50
2023-05-12T00:51:50.692Z,4.90
2023-05-12T00:52:11.810Z,4.70
2023-05-12T00:52:32.820Z,4.50
2023-05-12T00:52:53.878Z,4.60
2023-05-12T00:53:14.932Z,4.70
2023-05-12T00:53:48.380Z,4.70
2023-05-12T00:54:02.997Z,4.70
2023-05-12T00:54:24.027Z,4.50
2023-05-12T00:54:45.092Z,4.60
2023-05-12T00:55:06.154Z,4.40
2023-05-12T00:55:27.224Z,4.30
2023-05-12T00:55:48.263Z,4.80
2023-05-12T00:56:09.317Z,5.00
2023-05-12T00:56:30.604Z,5.50
2023-05-12T00:56:51.701Z,4.30
2023-05-12T00:57:12.755Z,3.80
2023-05-12T00:57:33.818Z,3.30
2023-05-12T00:57:54.867Z,3.10
2023-05-12T00:58:15.934Z,3.70
2023-05-12T00:58:37.005Z,3.70
2023-05-12T00:58:58.062Z,3.10
2023-05-12T00:59:19.120Z,3.20
2023-05-12T00:59:40.183Z,3.10
2023-05-12T01:00:01.308Z,3.20
2023-05-12T01:00:22.566Z,3.60
2023-05-12T01:00:43.728Z,3.50
2023-05-12T01:01:04.771Z,3.50
2023-05-12T01:01:25.853Z,3.50
2023-05-12T01:01:46.924Z,4.20
2023-05-12T01:02:08.273Z,4.70
2023-05-12T01:02:29.483Z,4.50
2023-05-12T01:02:50.681Z,4.30
2023-05-12T01:03:11.950Z,4.70
2023-05-12T01:03:33.272Z,4.50
2023-05-12T01:03:54.385Z,4.50
2023-05-12T01:04:15.440Z,4.50
2023-05-12T01:04:36.517Z,4.20
2023-05-12T01:04:57.568Z,4.10
2023-05-12T01:05:18.635Z,3.80
2023-05-12T01:05:39.686Z,3.90
2023-05-12T01:06:00.780Z,3.80
2023-05-12T01:06:21.809Z,4.00
2023-05-12T01:06:42.862Z,3.60
2023-05-12T01:07:03.971Z,3.40
2023-05-12T01:07:25.229Z,3.50
2023-05-12T01:07:46.295Z,3.70
2023-05-12T01:08:07.345Z,3.40
2023-05-12T01:08:28.422Z,3.50
2023-05-12T01:08:49.489Z,3.20
2023-05-12T01:09:10.566Z,2.70
2023-05-12T01:09:31.603Z,2.40
2023-05-12T01:09:52.661Z,2.10
2023-05-12T01:10:13.711Z,2.10
2023-05-12T01:10:34.816Z,2.00
2023-05-12T01:10:55.851Z,1.60
2023-05-12T01:11:16.908Z,1.60
2023-05-12T01:11:37.974Z,1.80
2023-05-12T01:11:59.016Z,1.70
2023-05-12T01:12:20.306Z,1.40
2023-05-12T01:12:41.573Z,1.40
2023-05-12T01:13:02.635Z,1.30
2023-05-12T01:13:23.690Z,1.20
2023-05-12T01:13:44.743Z,1.60
2023-05-12T01:14:05.807Z,1.50
2023-05-12T01:14:26.873Z,1.20
2023-05-12T01:14:47.936Z,1.20
2023-05-12T01:15:09.015Z,1.10
2023-05-12T01:15:30.075Z,0.90
2023-05-12T01:15:51.152Z,1.20
2023-05-12T01:16:12.195Z,1.30
2023-05-12T01:16:33.242Z,1.10
2023-05-12T01:16:54.318Z,1.00
2023-05-12T01:17:15.415Z,1.00
2023-05-12T01:17:36.923Z,1.00
2023-05-12T01:17:58.183Z,0.80
2023-05-12T01:18:19.251Z,1.00
2023-05-12T01:18:40.298Z,0.90
2023-05-12T01:19:01.420Z,1.10
2023-05-12T01:19:22.452Z,1.00
2023-05-12T01:19:43.512Z,1.00
2023-05-12T01:20:04.660Z,1.00
2023-05-12T01:20:25.711Z,1.10
2023-05-12T01:20:46.774Z,1.00
2023-05-12T01:21:07.846Z,1.00
2023-05-12T01:21:28.902Z,1.00
2023-05-12T01:21:49.962Z,1.20
2023-05-12T01:22:11.056Z,1.30
2023-05-12T01:22:32.085Z,1.30
2023-05-12T01:22:53.379Z,1.60
2023-05-12T01:23:14.471Z,1.30
2023-05-12T01:23:35.529Z,1.10
2023-05-12T01:23:56.613Z,1.20
2023-05-12T01:24:17.658Z,1.30
2023-05-12T01:24:38.732Z,1.40
2023-05-12T01:24:59.780Z,1.40
2023-05-12T01:25:20.839Z,1.60
2023-05-12T01:25:41.899Z,1.80
2023-05-12T01:26:02.969Z,1.90
2023-05-12T01:26:24.021Z,1.70
2023-05-12T01:26:45.084Z,1.90
2023-05-12T01:27:06.154Z,1.80
2023-05-12T01:27:27.221Z,1.80
2023-05-12T01:27:48.285Z,1.80
2023-05-12T01:28:09.362Z,2.00
2023-05-12T01:28:30.629Z,2.10
2023-05-12T01:28:51.683Z,2.00
2023-05-12T01:29:12.743Z,2.10
2023-05-12T01:29:33.798Z,2.40
2023-05-12T01:29:54.852Z,2.20
2023-05-12T01:30:15.916Z,2.30
2023-05-12T01:30:36.982Z,2.40
2023-05-12T01:30:58.102Z,2.40
2023-05-12T01:31:21.100Z,2.40
2023-05-12T01:31:42.447Z,2.10
2023-05-12T01:32:03.492Z,2.10
2023-05-12T01:32:24.623Z,2.00
2023-05-12T01:32:45.712Z,1.70
2023-05-12T01:33:06.808Z,1.80
2023-05-12T01:33:27.880Z,2.00
2023-05-12T01:33:49.029Z,2.10
2023-05-12T01:34:10.073Z,2.00
2023-05-12T01:34:31.131Z,2.20
2023-05-12T01:34:52.187Z,2.10
2023-05-12T01:35:13.239Z,1.90
2023-05-12T01:35:34.337Z,1.80
2023-05-12T01:35:55.383Z,2.00
2023-05-12T01:36:16.458Z,1.90
2023-05-12T01:36:37.525Z,1.40
2023-05-12T01:36:58.575Z,1.50
2023-05-12T01:37:19.617Z,1.60
2023-05-12T01:37:40.696Z,1.80
2023-05-12T01:38:01.754Z,1.90
2023-05-12T01:38:22.812Z,1.70
2023-05-12T01:38:44.080Z,1.70
2023-05-12T01:39:05.178Z,1.60
2023-05-12T01:39:26.255Z,2.00
2023-05-12T01:39:47.288Z,1.80
2023-05-12T01:40:08.358Z,1.90
2023-05-12T01:40:29.410Z,1.60
2023-05-12T01:40:50.478Z,1.70
2023-05-12T01:41:11.517Z,1.70
2023-05-12T01:41:32.592Z,1.90
2023-05-12T01:41:53.680Z,2.00
2023-05-12T01:42:14.704Z,1.90
2023-05-12T01:42:35.771Z,1.80
2023-05-12T01:42:56.833Z,1.90
2023-05-12T01:43:18.245Z,1.90
2023-05-12T01:43:39.944Z,2.10
2023-05-12T01:44:01.226Z,2.20
2023-05-12T01:44:22.272Z,2.00
2023-05-12T01:44:43.355Z,2.30
2023-05-12T01:45:04.393Z,2.20
2023-05-12T01:45:25.445Z,2.10
2023-05-12T01:45:46.499Z,2.10
2023-05-12T01:46:07.603Z,2.30
2023-05-12T01:46:28.742Z,2.20
2023-05-12T01:46:49.975Z,2.30
2023-05-12T01:47:11.102Z,2.30
2023-05-12T01:47:32.170Z,2.20
2023-05-12T01:47:53.259Z,1.90
2023-05-12T01:48:14.319Z,2.40
2023-05-12T01:48:35.370Z,2.60
2023-05-12T01:48:56.428Z,2.50
2023-05-12T01:49:17.535Z,2.30
2023-05-12T01:49:38.621Z,2.60
2023-05-12T01:49:59.672Z,2.60
2023-05-12T01:50:21.042Z,2.60
2023-05-12T01:50:42.251Z,2.30
2023-05-12T01:51:03.346Z,2.60
2023-05-12T01:51:24.389Z,2.50
2023-05-12T01:51:45.449Z,2.50
2023-05-12T01:52:06.500Z,2.40
2023-05-12T01:52:27.569Z,2.60
2023-05-12T01:52:48.668Z,2.70
2023-05-12T01:53:09.746Z,2.20
2023-05-12T01:53:30.793Z,2.50
2023-05-12T01:53:51.839Z,2.50
2023-05-12T01:54:12.901Z,2.50
2023-05-12T01:54:34.197Z,2.30
2023-05-12T01:54:55.241Z,2.60
2023-05-12T01:55:16.330Z,2.70
2023-05-12T01:55:37.357Z,2.60
2023-05-12T01:55:58.423Z,2.60
2023-05-12T01:56:19.465Z,2.70
2023-05-12T01:56:40.529Z,2.50
2023-05-12T01:57:01.594Z,2.40
2023-05-12T01:57:22.679Z,2.50
2023-05-12T01:57:43.716Z,2.50
2023-05-12T01:58:04.771Z,2.50
2023-05-12T01:58:25.833Z,2.90
2023-05-12T01:58:46.923Z,3.00
2023-05-12T01:59:08.020Z,3.00
2023-05-12T01:59:29.043Z,2.80
2023-05-12T01:59:50.316Z,2.60
2023-05-12T02:00:32.611Z,2.30
2023-05-12T02:00:53.665Z,2.50
2023-05-12T02:01:14.740Z,2.50
2023-05-12T02:01:35.830Z,2.40
2023-05-12T02:01:56.887Z,2.50
2023-05-12T02:02:17.973Z,2.60
2023-05-12T02:02:40.892Z,2.70
2023-05-12T02:03:03.905Z,2.50
2023-05-12T02:03:25.113Z,2.60
2023-05-12T02:03:46.355Z,3.10
2023-05-12T02:04:07.524Z,2.70
2023-05-12T02:04:28.574Z,2.50
2023-05-12T02:04:49.656Z,2.80
2023-05-12T02:05:10.943Z,2.70
2023-05-12T02:05:32.193Z,2.50
2023-05-12T02:05:53.267Z,2.70
2023-05-12T02:06:14.307Z,2.60
2023-05-12T02:06:35.376Z,2.80
2023-05-12T02:06:56.433Z,2.60
2023-05-12T02:07:17.487Z,2.60
2023-05-12T02:07:38.552Z,2.60
2023-05-12T02:07:59.608Z,2.50
2023-05-12T02:08:20.654Z,2.70
2023-05-12T02:08:41.711Z,2.90
2023-05-12T02:09:02.820Z,3.00
2023-05-12T02:09:23.877Z,2.70
2023-05-12T02:09:44.929Z,3.00
2023-05-12T02:10:05.995Z,2.90
2023-05-12T02:10:27.278Z,2.60
2023-05-12T02:10:48.574Z,2.60
2023-05-12T02:11:09.605Z,2.70
2023-05-12T02:11:30.654Z,2.80
2023-05-12T02:11:51.740Z,2.60
2023-05-12T02:12:12.777Z,2.50
2023-05-12T02:12:33.829Z,2.60
2023-05-12T02:12:54.924Z,2.50
2023-05-12T02:13:15.953Z,2.80
2023-05-12T02:13:37.012Z,2.90
2023-05-12T02:13:58.060Z,2.90
2023-05-12T02:14:19.143Z,2.80
2023-05-12T02:14:40.196Z,2.80
2023-05-12T02:15:01.344Z,2.90
2023-05-12T02:15:22.384Z,2.80
2023-05-12T02:15:43.496Z,2.90
2023-05-12T02:16:04.650Z,3.10
2023-05-12T02:16:25.785Z,2.90
2023-05-12T02:16:46.970Z,2.90
2023-05-12T02:17:08.193Z,2.80
2023-05-12T02:17:29.264Z,3.10
2023-05-12T02:17:50.431Z,2.80
2023-05-12T02:18:11.623Z,2.90
2023-05-12T02:18:32.756Z,2.90
2023-05-12T02:18:53.881Z,2.90
2023-05-12T02:19:14.952Z,2.90
2023-05-12T02:19:36.067Z,3.00
2023-05-12T02:19:57.102Z,3.30
2023-05-12T02:20:18.318Z,3.50
2023-05-12T02:20:39.515Z,3.00
2023-05-12T02:21:00.605Z,3.20
2023-05-12T02:21:21.732Z,3.40
2023-05-12T02:21:42.838Z,3.20
2023-05-12T02:22:03.874Z,3.10
2023-05-12T02:22:24.957Z,3.00
2023-05-12T02:22:45.978Z,2.80
2023-05-12T02:23:07.054Z,2.70
2023-05-12T02:23:28.115Z,2.80
2023-05-12T02:23:49.174Z,2.80
2023-05-12T02:24:10.232Z,2.80
2023-05-12T02:24:31.285Z,2.70
2023-05-12T02:24:52.351Z,2.60
2023-05-12T02:25:13.401Z,2.90
2023-05-12T02:25:34.446Z,2.90
2023-05-12T02:25:55.567Z,2.80
2023-05-12T02:26:16.637Z,3.00
2023-05-12T02:26:37.923Z,2.60
2023-05-12T02:26:58.969Z,2.80
2023-05-12T02:27:20.019Z,3.00
2023-05-12T02:27:41.124Z,2.90
2023-05-12T02:28:02.158Z,3.10
2023-05-12T02:28:23.219Z,2.90
2023-05-12T02:28:44.285Z,2.60
2023-05-12T02:29:05.332Z,2.80
2023-05-12T02:29:26.414Z,3.10
2023-05-12T02:29:47.507Z,3.10
2023-05-12T02:30:08.541Z,2.90
2023-05-12T02:30:29.609Z,2.90
2023-05-12T02:30:50.656Z,3.00
2023-05-12T02:31:11.700Z,2.90
2023-05-12T02:31:33.090Z,2.70
2023-05-12T02:31:54.157Z,2.90
2023-05-12T02:32:15.194Z,3.20
2023-05-12T02:32:36.332Z,3.00
2023-05-12T02:32:57.523Z,3.00
2023-05-12T02:33:18.554Z,3.10
2023-05-12T02:33:39.619Z,2.90
2023-05-12T02:34:00.699Z,3.00
2023-05-12T02:34:21.757Z,2.70
2023-05-12T02:34:42.813Z,3.00
2023-05-12T02:35:03.889Z,3.40
2023-05-12T02:35:24.940Z,3.10
2023-05-12T02:35:46.009Z,3.10
2023-05-12T02:36:07.093Z,3.30
2023-05-12T02:36:28.124Z,3.50
2023-05-12T02:36:49.218Z,3.40
2023-05-12T02:37:11.132Z,3.30
2023-05-12T02:37:32.212Z,3.20
2023-05-12T02:37:53.267Z,3.50
2023-05-12T02:38:14.332Z,3.60
2023-05-12T02:38:35.402Z,3.70
2023-05-12T02:38:56.444Z,3.60
2023-05-12T02:39:17.518Z,4.10
2023-05-12T02:39:38.567Z,4.20
2023-05-12T02:39:59.630Z,4.10
2023-05-12T02:40:20.812Z,4.10
2023-05-12T02:40:42.149Z,4.30
2023-05-12T02:41:03.216Z,4.50
2023-05-12T02:41:24.266Z,4.80
2023-05-12T02:41:45.346Z,4.80
2023-05-12T02:42:06.595Z,4.80
2023-05-12T02:42:27.858Z,4.40
2023-05-12T02:42:48.916Z,4.80
2023-05-12T02:43:09.980Z,4.80
2023-05-12T02:43:31.043Z,4.50
2023-05-12T02:43:52.104Z,4.70
2023-05-12T02:44:13.174Z,4.50
2023-05-12T02:44:34.242Z,4.90
2023-05-12T02:44:55.287Z,4.70
2023-05-12T02:45:16.343Z,4.90
2023-05-12T02:45:37.475Z,5.00
2023-05-12T02:45:58.507Z,4.60
2023-05-12T02:46:19.652Z,4.90
2023-05-12T02:46:40.784Z,4.90
2023-05-12T02:47:01.864Z,4.90
2023-05-12T02:47:22.946Z,4.60
2023-05-12T02:47:44.236Z,4.70
2023-05-12T02:48:05.320Z,5.10
2023-05-12T02:48:26.366Z,5.20
2023-05-12T02:48:47.421Z,4.60
2023-05-12T02:49:08.500Z,4.60
2023-05-12T02:49:29.559Z,4.90
2023-05-12T02:49:50.615Z,4.80
2023-05-12T02:50:11.680Z,4.70
2023-05-12T02:50:32.725Z,4.90
2023-05-12T02:50:53.784Z,5.00
2023-05-12T02:51:14.837Z,4.80
2023-05-12T02:51:35.894Z,4.70
2023-05-12T02:51:56.973Z,4.90
2023-05-12T02:52:18.030Z,5.00
2023-05-12T02:52:39.278Z,5.00
2023-05-12T02:53:00.369Z,5.10
2023-05-12T02:53:21.436Z,4.80
2023-05-12T02:53:42.493Z,4.60
2023-05-12T02:54:03.558Z,4.80
2023-05-12T02:54:24.630Z,5.30
2023-05-12T02:54:45.671Z,5.00
2023-05-12T02:55:06.748Z,5.30
2023-05-12T02:55:27.788Z,5.30
2023-05-12T02:55:48.855Z,5.10
2023-05-12T02:56:09.909Z,5.10
2023-05-12T02:56:33.821Z,5.10
2023-05-12T02:56:55.043Z,4.90
2023-05-12T02:57:16.091Z,5.10
2023-05-12T02:57:37.142Z,5.10
2023-05-12T02:57:58.266Z,5.20
2023-05-12T02:58:19.542Z,5.50
2023-05-12T02:58:40.575Z,5.20
2023-05-12T02:59:01.677Z,5.10
2023-05-12T02:59:22.738Z,5.10
2023-05-12T02:59:43.769Z,5.40
2023-05-12T03:00:04.828Z,5.00
2023-05-12T03:00:25.893Z,5.40
2023-05-12T03:00:50.171Z,5.30
2023-05-12T03:01:13.953Z,5.60
2023-05-12T03:01:35.062Z,5.80
2023-05-12T03:01:56.226Z,5.30
2023-05-12T03:02:17.379Z,5.20
2023-05-12T03:02:38.504Z,5.50
2023-05-12T03:02:59.932Z,5.50
2023-05-12T03:03:21.132Z,5.60
2023-05-12T03:03:42.346Z,5.40
2023-05-12T03:04:03.551Z,5.60
2023-05-12T03:04:24.594Z,5.70
2023-05-12T03:04:45.651Z,5.40
2023-05-12T03:05:06.716Z,5.70
2023-05-12T03:05:27.792Z,5.60
2023-05-12T03:05:48.841Z,5.30
2023-05-12T03:06:09.906Z,5.40
2023-05-12T03:06:30.957Z,5.50
2023-05-12T03:06:52.012Z,5.20
2023-05-12T03:07:13.063Z,5.30
2023-05-12T03:07:34.131Z,5.70
2023-05-12T03:07:55.188Z,5.60
2023-05-12T03:08:16.312Z,5.60
2023-05-12T03:08:37.545Z,5.80
2023-05-12T03:08:58.603Z,5.50
2023-05-12T03:09:19.670Z,5.70
2023-05-12T03:09:40.750Z,5.60
2023-05-12T03:10:01.803Z,6.00
2023-05-12T03:10:23.194Z,5.80
2023-05-12T03:10:44.345Z,5.60
2023-05-12T03:11:05.406Z,5.70
2023-05-12T03:11:26.473Z,5.70
2023-05-12T03:11:47.542Z,6.20
2023-05-12T03:12:08.592Z,6.00
2023-05-12T03:12:29.654Z,5.90
2023-05-12T03:12:50.709Z,5.90
2023-05-12T03:13:11.764Z,6.10
2023-05-12T03:13:32.867Z,5.80
2023-05-12T03:13:53.967Z,6.00
2023-05-12T03:14:15.023Z,6.10
2023-05-12T03:14:36.073Z,5.90
2023-05-12T03:14:57.173Z,6.10
2023-05-12T03:15:18.202Z,6.00
2023-05-12T03:15:39.271Z,5.80
2023-05-12T03:16:00.324Z,6.20
2023-05-12T03:16:21.423Z,6.30
2023-05-12T03:16:42.510Z,6.10
2023-05-12T03:17:03.673Z,6.10
2023-05-12T03:17:24.835Z,6.70
2023-05-12T03:17:45.924Z,6.50
2023-05-12T03:18:07.028Z,6.10
2023-05-12T03:18:28.159Z,6.50
2023-05-12T03:18:49.487Z,6.40
2023-05-12T03:19:10.905Z,6.30
2023-05-12T03:19:32.068Z,6.50
2023-05-12T03:19:53.122Z,6.70
2023-05-12T03:20:14.187Z,6.20
2023-05-12T03:20:35.248Z,6.60
2023-05-12T03:20:56.327Z,6.50
2023-05-12T03:21:17.373Z,6.70
2023-05-12T03:21:38.494Z,6.50
2023-05-12T03:21:59.522Z,6.40
2023-05-12T03:22:20.576Z,6.70
2023-05-12T03:22:41.633Z,6.70
2023-05-12T03:23:02.686Z,6.60
2023-05-12T03:23:23.754Z,6.90
2023-05-12T03:23:44.816Z,6.60
2023-05-12T03:24:05.922Z,7.00
2023-05-12T03:24:27.186Z,6.90
2023-05-12T03:24:48.241Z,7.10
2023-05-12T03:25:09.294Z,7.30
2023-05-12T03:25:30.359Z,7.50
2023-05-12T03:25:51.408Z,7.30
2023-05-12T03:26:12.474Z,6.90
2023-05-12T03:26:33.536Z,7.20
2023-05-12T03:26:54.647Z,7.60
2023-05-12T03:27:15.674Z,7.70
2023-05-12T03:27:36.739Z,7.80
2023-05-12T03:27:57.787Z,7.80
2023-05-12T03:28:18.848Z,7.50
2023-05-12T03:28:39.903Z,7.40
2023-05-12T03:29:00.978Z,7.70
2023-05-12T03:29:22.244Z,7.60
2023-05-12T03:29:43.349Z,7.50
2023-05-12T03:30:04.395Z,8.10
2023-05-12T03:30:25.456Z,7.90
2023-05-12T03:30:46.511Z,7.60
2023-05-12T03:31:07.707Z,7.30
2023-05-12T03:31:28.810Z,7.60
2023-05-12T03:31:49.937Z,7.70
2023-05-12T03:32:10.990Z,7.30
2023-05-12T03:32:32.040Z,7.10
2023-05-12T03:32:53.116Z,6.90
2023-05-12T03:33:14.162Z,7.20
2023-05-12T03:33:35.240Z,7.20
2023-05-12T03:33:56.288Z,7.50
2023-05-12T03:34:17.344Z,7.20
2023-05-12T03:34:38.618Z,7.50
2023-05-12T03:34:59.874Z,7.60
2023-05-12T03:35:20.926Z,7.90
2023-05-12T03:35:42.012Z,7.60
2023-05-12T03:36:03.073Z,7.60
2023-05-12T03:36:24.135Z,7.40
2023-05-12T03:36:45.175Z,7.30
2023-05-12T03:37:06.248Z,7.30
2023-05-12T03:37:27.310Z,7.30
2023-05-12T03:37:48.383Z,7.60
2023-05-12T03:38:09.444Z,7.60
2023-05-12T03:38:30.499Z,7.40
2023-05-12T03:38:51.555Z,7.60
2023-05-12T03:39:12.611Z,7.60
2023-05-12T03:39:33.665Z,7.40
2023-05-12T03:39:54.949Z,7.90
2023-05-12T03:40:16.045Z,7.60
2023-05-12T03:40:37.088Z,7.60
2023-05-12T03:40:58.135Z,8.00
2023-05-12T03:41:19.200Z,8.10
2023-05-12T03:41:40.272Z,8.60
2023-05-12T03:42:01.324Z,8.30
2023-05-12T03:42:22.373Z,7.90
2023-05-12T03:42:43.426Z,7.50
2023-05-12T03:43:04.484Z,7.60
2023-05-12T03:43:25.540Z,7.90
2023-05-12T03:43:46.602Z,7.70
2023-05-12T03:44:07.714Z,7.90
2023-05-12T03:44:28.745Z,8.10
2023-05-12T03:44:49.803Z,8.10
2023-05-12T03:45:11.073Z,7.90
2023-05-12T03:45:33.020Z,7.80
2023-05-12T03:45:54.112Z,8.20
2023-05-12T03:46:15.280Z,8.00
2023-05-12T03:46:36.401Z,7.50
2023-05-12T03:46:58.151Z,7.70
2023-05-12T03:47:19.406Z,8.10
2023-05-12T03:47:41.001Z,8.30
2023-05-12T03:48:02.221Z,8.40
2023-05-12T03:48:23.297Z,7.70
2023-05-12T03:48:44.368Z,8.00
2023-05-12T03:49:05.476Z,7.90
2023-05-12T03:49:26.511Z,7.90
2023-05-12T03:49:47.557Z,8.10
2023-05-12T03:50:08.677Z,9.00
2023-05-12T03:50:29.902Z,8.50
2023-05-12T03:50:51.000Z,8.60
2023-05-12T03:51:12.066Z,8.60
2023-05-12T03:51:33.108Z,8.60
2023-05-12T03:51:54.168Z,9.20
2023-05-12T03:52:15.226Z,8.80
2023-05-12T03:52:36.284Z,8.90
2023-05-12T03:52:57.337Z,8.70
2023-05-12T03:53:18.412Z,9.40
2023-05-12T03:53:39.498Z,8.80
2023-05-12T03:54:00.580Z,9.40
2023-05-12T03:54:21.640Z,9.00
2023-05-12T03:54:42.690Z,9.20
2023-05-12T03:55:03.760Z,8.90
2023-05-12T03:55:24.806Z,8.80
2023-05-12T03:55:45.975Z,8.90
2023-05-12T03:56:07.035Z,9.10
2023-05-12T03:56:28.114Z,9.50
2023-05-12T03:56:49.172Z,9.60
2023-05-12T03:57:10.223Z,9.40
2023-05-12T03:57:31.275Z,9.80
2023-05-12T03:57:52.720Z,9.70
2023-05-12T03:58:13.779Z,10.30
2023-05-12T03:58:34.846Z,10.10
2023-05-12T03:58:55.891Z,10.10
2023-05-12T03:59:16.950Z,9.60
2023-05-12T03:59:38.009Z,9.60
2023-05-12T03:59:59.053Z,9.60
2023-05-12T04:00:20.410Z,10.30
2023-05-12T04:00:41.596Z,10.10
2023-05-12T04:01:02.886Z,10.00
2023-05-12T04:01:23.973Z,10.30
2023-05-12T04:01:45.062Z,10.30
2023-05-12T04:02:06.192Z,10.00
2023-05-12T04:02:27.403Z,9.80
2023-05-12T04:02:48.623Z,9.20
2023-05-12T04:03:09.858Z,9.40
2023-05-12T04:03:31.045Z,9.90
2023-05-12T04:03:52.249Z,9.70
2023-05-12T04:04:13.428Z,9.10
2023-05-12T04:04:34.495Z,8.80
2023-05-12T04:04:55.556Z,8.80
2023-05-12T04:05:16.617Z,8.90
2023-05-12T04:05:37.680Z,8.40
2023-05-12T04:05:58.737Z,8.70
2023-05-12T04:06:19.818Z,9.00
2023-05-12T04:06:40.943Z,8.70
2023-05-12T04:07:01.965Z,8.90
2023-05-12T04:07:23.024Z,8.80
2023-05-12T04:07:44.096Z,8.60
2023-05-12T04:08:05.162Z,8.70
2023-05-12T04:08:26.220Z,8.40
2023-05-12T04:08:47.308Z,9.00
2023-05-12T04:09:08.352Z,8.70
2023-05-12T04:09:29.415Z,8.60
2023-05-12T04:09:50.489Z,8.60
2023-05-12T04:10:11.565Z,8.80
2023-05-12T04:10:32.643Z,8.80
2023-05-12T04:10:53.688Z,8.80
2023-05-12T04:11:14.749Z,9.30
2023-05-12T04:11:36.011Z,9.20
2023-05-12T04:11:57.145Z,9.20
2023-05-12T04:12:18.198Z,9.60
2023-05-12T04:12:39.257Z,9.00
2023-05-12T04:13:00.784Z,8.80
2023-05-12T04:13:22.331Z,8.90
2023-05-12T04:13:43.402Z,8.60
2023-05-12T04:14:04.455Z,8.00
2023-05-12T04:14:35.177Z,8.10
2023-05-12T04:14:52.478Z,8.00
2023-05-12T04:15:13.529Z,8.10
2023-05-12T04:15:34.584Z,8.40
2023-05-12T04:15:55.937Z,8.70
2023-05-12T04:16:17.023Z,8.60
2023-05-12T04:16:38.175Z,8.50
2023-05-12T04:16:59.298Z,8.90
2023-05-12T04:17:20.380Z,8.70
2023-05-12T04:17:41.549Z,8.50
2023-05-12T04:18:02.654Z,8.60
2023-05-12T04:18:23.731Z,8.50
2023-05-12T04:18:44.808Z,8.80
2023-05-12T04:19:05.895Z,8.90
2023-05-12T04:19:26.965Z,8.70
2023-05-12T04:19:48.023Z,8.20
2023-05-12T04:20:09.084Z,8.20
2023-05-12T04:20:30.142Z,8.40
2023-05-12T04:20:51.207Z,8.50
2023-05-12T04:21:12.269Z,8.60
2023-05-12T04:21:33.318Z,8.10
2023-05-12T04:21:54.582Z,8.20
2023-05-12T04:22:15.704Z,7.70
2023-05-12T04:22:36.745Z,7.50
2023-05-12T04:22:57.794Z,7.90
2023-05-12T04:23:18.853Z,7.60
2023-05-12T04:23:39.909Z,7.60
2023-05-12T04:24:00.980Z,7.50
2023-05-12T04:24:22.048Z,7.30
2023-05-12T04:24:43.092Z,7.00
2023-05-12T04:25:04.160Z,7.00
2023-05-12T04:25:25.210Z,7.30
2023-05-12T04:25:46.277Z,7.70
2023-05-12T04:26:07.344Z,8.10
2023-05-12T04:26:28.431Z,8.00
2023-05-12T04:26:49.487Z,7.70
2023-05-12T04:27:10.768Z,8.10
2023-05-12T04:27:32.056Z,8.30
2023-05-12T04:27:53.102Z,8.00
2023-05-12T04:28:14.176Z,8.50
2023-05-12T04:28:35.223Z,7.90
2023-05-12T04:28:56.286Z,7.30
2023-05-12T04:29:17.339Z,7.40
2023-05-12T04:29:38.406Z,7.90
2023-05-12T04:29:59.489Z,7.90
2023-05-12T04:30:20.680Z,7.90
2023-05-12T04:30:41.840Z,7.40
2023-05-12T04:31:02.893Z,7.60
2023-05-12T04:31:23.973Z,8.10
2023-05-12T04:31:45.059Z,7.70
2023-05-12T04:32:06.203Z,7.60
2023-05-12T04:32:27.534Z,7.40
2023-05-12T04:32:48.879Z,7.40
2023-05-12T04:33:10.042Z,7.00
2023-05-12T04:33:31.206Z,7.20
2023-05-12T04:33:52.257Z,7.40
2023-05-12T04:34:13.305Z,6.60
2023-05-12T04:34:34.362Z,7.10
2023-05-12T04:34:55.424Z,7.60
2023-05-12T04:35:16.476Z,7.40
2023-05-12T04:35:37.537Z,6.70
2023-05-12T04:35:58.600Z,7.00
2023-05-12T04:36:19.691Z,7.00
2023-05-12T04:36:40.750Z,7.10
2023-05-12T04:37:01.783Z,6.90
2023-05-12T04:37:22.840Z,6.70
2023-05-12T04:37:44.192Z,6.70
2023-05-12T04:38:05.454Z,7.60
2023-05-12T04:38:26.517Z,7.40
2023-05-12T04:38:47.564Z,7.40
2023-05-12T04:39:08.608Z,7.00
2023-05-12T04:39:29.658Z,6.90
2023-05-12T04:39:50.731Z,7.10
2023-05-12T04:40:11.791Z,7.00
2023-05-12T04:40:35.056Z,6.90
2023-05-12T04:40:56.280Z,6.40
2023-05-12T04:41:17.349Z,6.80
2023-05-12T04:41:38.415Z,6.80